Buoy 41503

sailwx.info

Track history (hours):
 
Tides and Currents Weather Stations Pressure Air Temp Water Temp Dewpoint Dewpoint Depression Visibility Wind Speed Wind Dir Waves Ship Positions

Drifting buoy 41503

Last reported at 2014-Jul-28 02:25 UTC. Time now 2014-Jul-28 04:12 UTC.
Position N 31°28' W 062°47'.

Water temperature 27.2 ° C

Date/timePositionNaut miles runAvg speedWind from/ knotsBaromVisibWave heightAir tempDewpointWater temp
2014-Jul-28 02:25N 31°28' W 062°47'0 2.2 27.2
2014-Jul-28 02:15N 31°28' W 062°47'029.7 27.2
2014-Jul-28 02:14N 31°29' W 062°47'0 0.1 27.2
2014-Jul-28 01:37N 31°29' W 062°47'1 0.6 27.2
2014-Jul-28 00:44N 31°29' W 062°48'1 0.9 27.3
2014-Jul-27 23:52N 31°29' W 062°48'0 0.0 27.3
2014-Jul-27 23:22N 31°29' W 062°48'1 4.2 27.3
2014-Jul-27 23:05N 31°30' W 062°49'0 0.0 27.3
2014-Jul-27 21:54N 31°30' W 062°49'0 0.0 27.4
2014-Jul-27 21:51N 31°30' W 062°49'0 0.9 27.4
2014-Jul-27 21:41N 31°30' W 062°50'1 0.5 27.4
2014-Jul-27 20:15N 31°30' W 062°50'1 1.9 27.4
2014-Jul-27 19:50N 31°31' W 062°51'0 4.2 27.4
2014-Jul-27 19:44N 31°30' W 062°51'0 0.0 27.3
2014-Jul-27 19:25N 31°30' W 062°51'0 0.0 27.3
2014-Jul-27 19:23N 31°30' W 062°51'3 3.4 27.3
2014-Jul-27 18:29N 31°30' W 062°55'0 0.0 27.3
2014-Jul-27 17:46N 31°30' W 062°55'1 0.8 27.3
2014-Jul-27 16:04N 31°30' W 062°53'1 5.3 27.3
2014-Jul-27 15:56N 31°30' W 062°54'0 0.1 27.3
2014-Jul-27 15:06N 31°30' W 062°54'0 0.4 27.2
2014-Jul-27 14:21N 31°29' W 062°54'1 4.3 27.2
2014-Jul-27 14:11N 31°29' W 062°55'0 0.1 27.2
2014-Jul-27 12:36N 31°29' W 062°55'0 3.6 27.1
2014-Jul-27 12:29N 31°29' W 062°55'0 0.0 27.1
2014-Jul-27 11:04N 31°29' W 062°55'0 0.3 27.1
2014-Jul-27 10:27N 31°29' W 062°55'0 7.9 27.1
2014-Jul-27 10:24N 31°29' W 062°55'0 0.0 27.1
2014-Jul-27 10:14N 31°29' W 062°55'0 2.4 27.1
2014-Jul-27 10:07N 31°29' W 062°55'0 0.6 27.1
2014-Jul-27 09:26N 31°29' W 062°55'0 0.9 27.1
2014-Jul-27 08:54N 31°29' W 062°56'0 0.0 27.1
2014-Jul-27 08:51N 31°29' W 062°56'0 0.0 27.1
2014-Jul-27 08:46N 31°29' W 062°56'0 8.2 27.1
2014-Jul-27 08:44N 31°29' W 062°56'0 0.0 27.1
2014-Jul-27 08:29N 31°29' W 062°56'0 0.7 27.1
2014-Jul-27 08:03N 31°29' W 062°56'0 3.7 27.1
2014-Jul-27 07:58N 31°29' W 062°56'0 0.5 27.1
2014-Jul-27 07:09N 31°29' W 062°56'0 0.3 27.2
2014-Jul-27 06:22N 31°28' W 062°56'0 2.1 27.2
2014-Jul-27 06:13N 31°28' W 062°56'0 0.3 27.2
2014-Jul-27 04:39N 31°29' W 062°57'0 0.1 27.2
2014-Jul-27 02:37N 31°28' W 062°57'0 0.0 27.2
2014-Jul-27 01:57N 31°28' W 062°57'0 0.2 27.2
2014-Jul-27 01:06N 31°28' W 062°57'0 0.0 27.2
2014-Jul-27 01:02N 31°28' W 062°57'0 5.7 27.2
2014-Jul-27 00:58N 31°29' W 062°57'0 0.0 27.2
2014-Jul-27 00:14N 31°29' W 062°57'0 3.3 27.3
2014-Jul-27 00:11N 31°29' W 062°57'0 0.2 27.3
2014-Jul-26 23:52N 31°29' W 062°57'0 0.4 27.3
2014-Jul-26 23:23N 31°29' W 062°57'1 0.6 27.3
2014-Jul-26 22:13N 31°29' W 062°58'0 0.0 27.3
2014-Jul-26 22:05N 31°29' W 062°58'0 1.1 27.3
2014-Jul-26 21:48N 31°29' W 062°57'0 0.3 27.3
2014-Jul-26 20:27N 31°29' W 062°58'0 0.7 27.3
2014-Jul-26 20:14N 31°29' W 062°58'019.8 27.3
2014-Jul-26 20:13N 31°29' W 062°58'0 0.3 27.3
2014-Jul-26 19:36N 31°29' W 062°58'1 0.6 27.3
2014-Jul-26 18:45N 31°29' W 062°59'0 5.4 27.3
2014-Jul-26 18:41N 31°29' W 062°59'0 0.4 27.3
2014-Jul-26 17:57N 31°29' W 062°59'1 0.5 27.3
2014-Jul-26 16:13N 31°29' W 062°60'0 7.8 27.2
2014-Jul-26 16:10N 31°29' W 062°60'0 0.1 27.2
2014-Jul-26 15:27N 31°29' W 062°60'1 1.0 27.1
2014-Jul-26 14:40N 31°29' W 063°00'1 0.6 27.1
2014-Jul-26 13:47N 31°29' W 063°01'0 0.0 27.0
2014-Jul-26 12:59N 31°29' W 063°01'0 2.1 27.0
2014-Jul-26 12:53N 31°29' W 063°01'1 1.1 27.0
2014-Jul-26 12:02N 31°28' W 063°02'0 0.0 27.0
2014-Jul-26 11:36N 31°28' W 063°02'0 0.1 27.0
2014-Jul-26 10:40N 31°28' W 063°02'110.2 26.9
2014-Jul-26 10:37N 31°28' W 063°01'0 2.7 26.9
2014-Jul-26 10:29N 31°28' W 063°02'0 0.0 26.9
2014-Jul-26 09:58N 31°28' W 063°02'0 0.0 26.9
2014-Jul-26 09:55N 31°28' W 063°02'0 0.4 26.9
2014-Jul-26 08:58N 31°28' W 063°02'0 0.0 27.0
2014-Jul-26 08:55N 31°28' W 063°02'0 7.7 26.9
2014-Jul-26 08:53N 31°28' W 063°02'0 0.0 26.9
2014-Jul-26 08:14N 31°28' W 063°02'019.0 27.0
2014-Jul-26 08:13N 31°27' W 063°02'0 3.9 27.0
2014-Jul-26 08:10N 31°28' W 063°02'0 3.6 27.0
2014-Jul-26 08:06N 31°27' W 063°02'0 0.2 27.0
2014-Jul-26 06:37N 31°27' W 063°02'0 0.0 27.0
2014-Jul-26 06:28N 31°27' W 063°02'0 0.0 27.0
2014-Jul-26 06:25N 31°27' W 063°02'0 0.0 27.0
2014-Jul-26 06:21N 31°27' W 063°02'0 0.0
2014-Jul-26 04:49N 31°27' W 063°02'0 0.1 27.0
2014-Jul-26 03:04N 31°27' W 063°02'0 7.4 27.1
2014-Jul-26 03:00N 31°27' W 063°02'0 0.0 27.1
2014-Jul-26 02:10N 31°27' W 063°02'0 0.0 27.1
2014-Jul-26 02:07N 31°27' W 063°02'0 0.2 27.1
2014-Jul-26 01:26N 31°27' W 063°02'0 0.0 27.1
2014-Jul-26 00:38N 31°27' W 063°02'0 3.6 27.1
2014-Jul-26 00:37N 31°27' W 063°02'0 1.8 27.1
2014-Jul-26 00:21N 31°27' W 063°02'0 0.1 27.2
2014-Jul-25 22:46N 31°27' W 063°02'0 0.0 27.2
2014-Jul-25 21:04N 31°27' W 063°02'0 0.8 27.2
2014-Jul-25 20:40N 31°27' W 063°02'012.8 27.2
2014-Jul-25 20:39N 31°27' W 063°02'1 0.8 27.2
2014-Jul-25 19:45N 31°27' W 063°03'0 0.0 27.2
2014-Jul-25 18:57N 31°27' W 063°03'0 4.9 27.2
2014-Jul-25 18:54N 31°27' W 063°03'0 0.2 27.2
2014-Jul-25 18:09N 31°27' W 063°03'0 0.2 27.2
2014-Jul-25 16:27N 31°28' W 063°03'0 0.2 27.2
2014-Jul-25 15:47N 31°28' W 063°03'1 1.2 27.1
2014-Jul-25 15:00N 31°27' W 063°04'1 0.7 27.1
2014-Jul-25 14:09N 31°27' W 063°04'0 0.0 27.1
2014-Jul-25 13:21N 31°27' W 063°04'0 0.5 27.0
2014-Jul-25 13:15N 31°27' W 063°04'0 0.2 27.0
2014-Jul-25 12:24N 31°27' W 063°04'1 0.7 27.0
2014-Jul-25 11:03N 31°26' W 063°05'0 1.8 27.0
2014-Jul-25 10:52N 31°27' W 063°05'0 7.1 27.0
2014-Jul-25 10:48N 31°26' W 063°05'0 0.0 27.0
2014-Jul-25 10:27N 31°26' W 063°05'1 0.5 27.0
2014-Jul-25 09:21N 31°26' W 063°05'0 1.4 27.0
2014-Jul-25 09:14N 31°26' W 063°05'0 1.5 27.0
2014-Jul-25 09:12N 31°26' W 063°05'0 2.3 27.0
2014-Jul-25 09:04N 31°26' W 063°04'0 1.8 27.0
2014-Jul-25 08:49N 31°26' W 063°05'0 1.0 27.0
2014-Jul-25 08:22N 31°26' W 063°04'1 6.7 27.0
2014-Jul-25 08:15N 31°25' W 063°04'0 0.0 27.0
2014-Jul-25 07:28N 31°25' W 063°04'0 0.1 27.1
2014-Jul-25 06:44N 31°25' W 063°05'1 5.3 27.2
2014-Jul-25 06:34N 31°26' W 063°05'0 0.0 27.2
2014-Jul-25 05:01N 31°26' W 063°05'1 0.6 27.3
2014-Jul-25 03:23N 31°25' W 063°05'0 0.0 27.4
2014-Jul-25 02:38N 31°25' W 063°05'0 0.1 27.4
2014-Jul-25 01:47N 31°25' W 063°05'0 0.5 27.4
2014-Jul-25 01:40N 31°25' W 063°05'0 0.2 27.4
2014-Jul-25 00:58N 31°24' W 063°06'0 0.0 27.5
2014-Jul-25 00:06N 31°24' W 063°06'0 0.0 27.5
2014-Jul-25 00:02N 31°24' W 063°06'0 0.3 27.5
2014-Jul-24 23:15N 31°24' W 063°05'0 0.5 27.6
2014-Jul-24 22:40N 31°24' W 063°05'0 0.0 27.6
2014-Jul-24 21:36N 31°24' W 063°05'0 0.9 27.7
2014-Jul-24 21:05N 31°24' W 063°05'0 0.0 27.8
2014-Jul-24 20:59N 31°24' W 063°05'0 1.2 27.8
2014-Jul-24 20:49N 31°24' W 063°05'0 1.6 27.8
2014-Jul-24 20:43N 31°24' W 063°05'0 0.1 27.8
2014-Jul-24 19:14N 31°25' W 063°05'0 0.5 27.7
2014-Jul-24 19:07N 31°25' W 063°05'0 0.1 27.7
2014-Jul-24 18:15N 31°25' W 063°05'0 0.3 27.8
2014-Jul-24 16:37N 31°25' W 063°06'0 0.0 27.7
2014-Jul-24 16:06N 31°25' W 063°06'0 0.0 27.7
2014-Jul-24 15:22N 31°25' W 063°06'0 0.2 27.7
2014-Jul-24 14:28N 31°25' W 063°06'0 0.6 27.6
2014-Jul-24 13:43N 31°25' W 063°06'0 1.6 27.6
2014-Jul-24 13:33N 31°25' W 063°06'0 0.0 27.6
2014-Jul-24 12:43N 31°25' W 063°06'113.4 27.6
2014-Jul-24 12:40N 31°25' W 063°07'0 0.0 27.6
2014-Jul-24 11:25N 31°25' W 063°07'0 1.1 27.6
2014-Jul-24 11:03N 31°25' W 063°08'0 0.0 27.5
2014-Jul-24 11:00N 31°25' W 063°08'0 0.2 27.5
2014-Jul-24 09:47N 31°25' W 063°08'0 1.1 27.5
2014-Jul-24 09:40N 31°25' W 063°08'0 0.0 27.5
2014-Jul-24 09:26N 31°25' W 063°08'0 1.5 27.6
2014-Jul-24 09:22N 31°25' W 063°07'0 0.7 27.6
2014-Jul-24 09:15N 31°24' W 063°07'1 0.8 27.6
2014-Jul-24 08:34N 31°24' W 063°08'0 0.3 27.6
2014-Jul-24 07:43N 31°24' W 063°08'0 1.0 27.6
2014-Jul-24 07:40N 31°24' W 063°08'0 0.5 27.6
2014-Jul-24 06:56N 31°24' W 063°08'0 3.2 27.6
2014-Jul-24 06:48N 31°23' W 063°08'0 0.0 27.6
2014-Jul-24 05:13N 31°23' W 063°08'1 0.6 27.6
2014-Jul-24 02:58N 31°22' W 063°07'0 0.0 27.7
2014-Jul-24 02:07N 31°22' W 063°07'1 4.3 27.8
2014-Jul-24 01:58N 31°22' W 063°06'0 0.0
2014-Jul-24 01:19N 31°22' W 063°06'0 0.0 27.8
2014-Jul-24 01:15N 31°22' W 063°06'0 0.1 27.8
2014-Jul-24 00:28N 31°22' W 063°06'1 0.7 27.9
2014-Jul-23 23:44N 31°22' W 063°06'1 0.5 27.9
2014-Jul-23 22:08N 31°23' W 063°05'1 1.3 27.8
2014-Jul-23 21:28N 31°23' W 063°04'0 0.1 27.8
2014-Jul-23 20:58N 31°23' W 063°04'0 2.4 27.9
2014-Jul-23 20:55N 31°23' W 063°04'1 5.7 27.9
2014-Jul-23 20:48N 31°24' W 063°04'0 0.4 27.9
2014-Jul-23 19:47N 31°24' W 063°04'0 0.0 27.9
2014-Jul-23 19:20N 31°24' W 063°04'0 0.0
2014-Jul-23 19:19N 31°24' W 063°04'021.8 28.0
2014-Jul-23 19:18N 31°25' W 063°04'0 0.0 28.0
2014-Jul-23 18:28N 31°25' W 063°04'1 0.5 28.0
2014-Jul-23 16:49N 31°26' W 063°04'1 0.7 27.9
2014-Jul-23 15:41N 31°26' W 063°05'0 0.0 27.7
2014-Jul-23 14:51N 31°26' W 063°05'2 2.3 27.6
2014-Jul-23 14:04N 31°26' W 063°07'0 0.0 27.6
2014-Jul-23 14:02N 31°26' W 063°07'0 1.1 27.6
2014-Jul-23 13:52N 31°26' W 063°07'0 0.2 27.6
2014-Jul-23 12:58N 31°26' W 063°07'0 0.1
2014-Jul-23 10:12N 31°26' W 063°07'0 2.9 27.2
2014-Jul-23 10:05N 31°26' W 063°07'0 0.9 27.2
2014-Jul-23 09:52N 31°26' W 063°07'0 0.8 27.2
2014-Jul-23 09:37N 31°26' W 063°07'0 3.1 27.2
2014-Jul-23 09:34N 31°26' W 063°07'1 6.3 27.2
2014-Jul-23 09:28N 31°25' W 063°08'0 0.0 27.2
2014-Jul-23 08:43N 31°25' W 063°08'0 0.8 27.2
2014-Jul-23 08:26N 31°25' W 063°08'0 1.0 27.2
2014-Jul-23 08:09N 31°25' W 063°07'0 1.0 27.2
2014-Jul-23 07:52N 31°25' W 063°08'0 6.6 27.2
2014-Jul-23 07:48N 31°25' W 063°07'0 0.0 27.2
2014-Jul-23 07:08N 31°25' W 063°07'0 0.0 27.2
2014-Jul-23 07:05N 31°25' W 063°07'1 4.0 27.2
2014-Jul-23 06:56N 31°24' W 063°07'0 0.0 27.2
2014-Jul-23 05:23N 31°24' W 063°07'1 7.2 27.3
2014-Jul-23 05:14N 31°24' W 063°06'0 0.0 27.3
2014-Jul-23 03:14N 31°24' W 063°06'0 0.0 27.3
2014-Jul-23 02:27N 31°24' W 063°06'0 0.6 27.4
2014-Jul-23 02:22N 31°24' W 063°06'1 0.9 27.4
2014-Jul-23 01:41N 31°24' W 063°05'0 0.1 27.4
2014-Jul-23 00:14N 31°24' W 063°05'0 1.8 27.5
2014-Jul-23 00:10N 31°24' W 063°04'0 0.3 27.5
2014-Jul-22 23:59N 31°24' W 063°04'110.0 27.5
2014-Jul-22 23:54N 31°25' W 063°04'0 0.2 27.5
2014-Jul-22 21:51N 31°25' W 063°03'1 0.8 27.9
2014-Jul-22 21:11N 31°25' W 063°03'0 1.8 27.9
2014-Jul-22 21:07N 31°25' W 063°03'1 1.1 27.9
2014-Jul-22 20:13N 31°26' W 063°03'0 4.7 27.9
2014-Jul-22 20:12N 31°26' W 063°03'0 0.2 27.9
2014-Jul-22 19:28N 31°26' W 063°03'0 0.5 27.9
2014-Jul-22 18:40N 31°27' W 063°04'0 2.0 28.0
2014-Jul-22 18:34N 31°27' W 063°03'110.6 28.0
2014-Jul-22 18:28N 31°28' W 063°04'0 0.0 28.0
2014-Jul-22 16:58N 31°28' W 063°04'1 0.3 28.0
2014-Jul-22 15:10N 31°28' W 063°05'0 0.2 27.8
2014-Jul-22 14:25N 31°28' W 063°05'1 4.8 27.7
2014-Jul-22 14:12N 31°28' W 063°06'0 0.1 27.7
2014-Jul-22 12:40N 31°28' W 063°06'1 0.3 27.4
2014-Jul-22 10:37N 31°28' W 063°07'0 1.2 27.3
2014-Jul-22 10:22N 31°27' W 063°07'0 0.2 27.4
2014-Jul-22 09:48N 31°27' W 063°07'1 4.2 27.4
2014-Jul-22 09:39N 31°27' W 063°06'0 0.2 27.4
2014-Jul-22 08:59N 31°27' W 063°06'0 0.3 27.4
2014-Jul-22 08:04N 31°26' W 063°06'0 3.9 27.5
2014-Jul-22 07:58N 31°26' W 063°06'0 0.0 27.5
2014-Jul-22 07:14N 31°26' W 063°06'1 9.1 27.6
2014-Jul-22 07:08N 31°26' W 063°05'0 0.2 27.6
2014-Jul-22 05:32N 31°26' W 063°05'2 0.8 27.9
2014-Jul-22 02:42N 31°25' W 063°03'0 0.4 28.2
2014-Jul-22 01:58N 31°25' W 063°03'0 0.2 28.2
2014-Jul-22 01:10N 31°25' W 063°02'0 0.0 28.4
2014-Jul-22 01:06N 31°25' W 063°02'0 4.9 28.4
2014-Jul-22 01:01N 31°25' W 063°02'0 0.0 28.4
2014-Jul-22 00:20N 31°25' W 063°02'133.8 28.3
2014-Jul-22 00:19N 31°25' W 063°01'0 0.0 28.2
2014-Jul-21 23:26N 31°25' W 063°01'0 1.5 28.9
2014-Jul-21 23:11N 31°26' W 063°01'1 0.6 29.0
2014-Jul-21 22:13N 31°26' W 063°01'0 0.5 29.9
2014-Jul-21 21:27N 31°27' W 063°01'0 3.9 30.3
2014-Jul-21 21:23N 31°26' W 063°01'0 0.0 30.3
2014-Jul-21 21:19N 31°26' W 063°01'1 1.0 30.3
2014-Jul-21 20:38N 31°27' W 063°00'012.6 30.6
2014-Jul-21 20:36N 31°27' W 063°00'0 0.0 30.6
2014-Jul-21 19:43N 31°27' W 063°00'0 0.3 30.6
2014-Jul-21 18:52N 31°28' W 063°01'0 1.9 30.8
2014-Jul-21 18:43N 31°28' W 063°00'121.6 30.8
2014-Jul-21 18:40N 31°29' W 063°01'0 0.0 30.6
2014-Jul-21 17:58N 31°29' W 063°01'0 0.1 30.5
2014-Jul-21 17:11N 31°29' W 063°01'0 0.2 30.0
2014-Jul-21 15:30N 31°29' W 063°01'0 4.7 29.4
2014-Jul-21 15:26N 31°29' W 063°01'0 0.0
2014-Jul-21 14:44N 31°29' W 063°01'0 1.9 28.4
2014-Jul-21 14:35N 31°29' W 063°02'0 0.0 28.4
2014-Jul-21 13:51N 31°29' W 063°02'0 0.3 28.1
2014-Jul-21 13:03N 31°28' W 063°02'0 1.2 27.7
2014-Jul-21 12:57N 31°28' W 063°02'0 0.2 27.6
2014-Jul-21 12:06N 31°28' W 063°02'1 0.7 27.3
2014-Jul-21 10:58N 31°28' W 063°03'0 0.0 27.1
2014-Jul-21 10:54N 31°28' W 063°03'1 4.1 27.1
2014-Jul-21 10:43N 31°27' W 063°02'0 0.0 27.1
2014-Jul-21 09:57N 31°27' W 063°02'0 0.0
2014-Jul-21 09:56N 31°27' W 063°02'110.4 27.1
2014-Jul-21 09:53N 31°27' W 063°03'0 0.0 27.1
2014-Jul-21 09:13N 31°27' W 063°03'150.1 27.1
2014-Jul-21 09:12N 31°26' W 063°02'0 0.0 27.2
2014-Jul-21 08:20N 31°26' W 063°02'0 0.4 27.2
2014-Jul-21 08:13N 31°26' W 063°02'014.8 27.2
2014-Jul-21 08:11N 31°26' W 063°02'0 0.0 27.2
2014-Jul-21 07:36N 31°26' W 063°02'0 0.5 27.2
2014-Jul-21 07:27N 31°26' W 063°02'110.1 27.3
2014-Jul-21 07:19N 31°26' W 063°00'0 0.0 27.3
2014-Jul-21 05:42N 31°26' W 063°00'260.0 27.4
2014-Jul-21 05:40N 31°25' W 062°58'0 0.0 27.4
2014-Jul-21 03:08N 31°25' W 062°58'0 5.3 27.6
2014-Jul-21 03:04N 31°25' W 062°58'0 0.5 27.6
2014-Jul-21 02:21N 31°26' W 062°57'1 5.9 27.6
2014-Jul-21 02:11N 31°26' W 062°56'0 0.1 27.6
2014-Jul-21 01:27N 31°26' W 062°56'0 1.4 27.7
2014-Jul-21 01:22N 31°26' W 062°56'0 0.0 27.7
2014-Jul-21 00:42N 31°26' W 062°56'138.4 27.7
2014-Jul-21 00:41N 31°26' W 062°55'0 0.0 27.7
2014-Jul-20 23:48N 31°26' W 062°55'0 1.8 27.9
2014-Jul-20 23:41N 31°26' W 062°55'1 1.0 27.9
2014-Jul-20 22:34N 31°27' W 062°55'0 0.3 28.1
2014-Jul-20 21:58N 31°27' W 062°55'0 0.3 28.3
2014-Jul-20 21:28N 31°27' W 062°55'1 9.2 28.4
2014-Jul-20 21:24N 31°27' W 062°56'0 0.0 28.4
2014-Jul-20 20:58N 31°27' W 062°56'1 0.7 28.4
2014-Jul-20 19:54N 31°28' W 062°55'0 0.5 28.2
2014-Jul-20 19:19N 31°28' W 062°56'0 0.3 28.1
2014-Jul-20 18:56N 31°28' W 062°55'1 8.1 27.9
2014-Jul-20 18:52N 31°29' W 062°55'0 0.0 27.9
2014-Jul-20 18:11N 31°29' W 062°55'0 0.3 27.9
2014-Jul-20 17:23N 31°29' W 062°56'0 2.0 27.6
2014-Jul-20 17:13N 31°29' W 062°56'0 0.2
2014-Jul-20 15:49N 31°29' W 062°56'0 0.4 27.4
2014-Jul-20 15:39N 31°29' W 062°56'0 0.8 27.4
2014-Jul-20 15:05N 31°29' W 062°56'1 4.1 27.3
2014-Jul-20 14:54N 31°28' W 062°56'0 0.0 27.3
2014-Jul-20 14:13N 31°28' W 062°56'1 0.7 27.2
2014-Jul-20 13:21N 31°28' W 062°56'1 4.2 27.1
2014-Jul-20 13:13N 31°27' W 062°56'0 0.2
2014-Jul-20 12:27N 31°27' W 062°56'0 0.3 27.0
2014-Jul-20 11:24N 31°27' W 062°57'1 4.2 26.9
2014-Jul-20 11:16N 31°27' W 062°56'0 0.0 24.2
2014-Jul-20 10:11N 31°27' W 062°57'0 3.8 26.9
2014-Jul-20 10:05N 31°27' W 062°56'0 9.3 26.9
2014-Jul-20 10:02N 31°26' W 062°57'0 0.0 26.9
2014-Jul-20 09:45N 31°26' W 062°57'0 0.8 26.9
2014-Jul-20 09:39N 31°26' W 062°57'114.1 26.9
2014-Jul-20 09:35N 31°26' W 062°56'0 0.0 26.9
2014-Jul-20 08:27N 31°26' W 062°56'0 1.3 27.0
2014-Jul-20 08:05N 31°26' W 062°55'0 6.0 27.0
2014-Jul-20 08:02N 31°26' W 062°55'0 0.3 27.0
2014-Jul-20 07:39N 31°26' W 062°55'1 8.2 27.0
2014-Jul-20 07:33N 31°25' W 062°54'0 9.5 27.0
2014-Jul-20 07:31N 31°25' W 062°54'0 0.0 27.0
2014-Jul-20 06:47N 31°25' W 062°54'0 0.1 27.0
2014-Jul-20 05:54N 31°25' W 062°54'342.6 27.1
2014-Jul-20 05:50N 31°24' W 062°51'1 0.2 27.1
2014-Jul-20 01:42N 31°25' W 062°50'0 0.0 27.3
2014-Jul-20 01:04N 31°25' W 062°50'0 2.4 27.4
2014-Jul-20 01:02N 31°25' W 062°50'1 6.9 27.4
2014-Jul-20 00:55N 31°25' W 062°49'0 0.0 27.4
2014-Jul-20 00:11N 31°25' W 062°49'0 0.0 27.3
2014-Jul-20 00:10N 31°25' W 062°49'1 9.0 27.3
2014-Jul-20 00:06N 31°26' W 062°49'0 0.1 27.3
2014-Jul-19 22:28N 31°26' W 062°49'1 1.0 27.4
2014-Jul-19 21:43N 31°26' W 062°48'0 0.7 27.4
2014-Jul-19 21:27N 31°26' W 062°48'1 0.5 27.5
2014-Jul-19 19:58N 31°27' W 062°49'1 3.2 27.5
2014-Jul-19 19:46N 31°27' W 062°49'0 0.0 27.5
2014-Jul-19 19:12N 31°27' W 062°49'0 1.5
2014-Jul-19 19:10N 31°27' W 062°49'0 0.3 27.4
2014-Jul-19 18:23N 31°27' W 062°49'0 0.2 27.4
2014-Jul-19 17:33N 31°27' W 062°49'0 0.6 27.3
2014-Jul-19 17:28N 31°27' W 062°49'0 0.3 27.3
2014-Jul-19 16:08N 31°27' W 062°50'0 0.0 27.2
2014-Jul-19 15:51N 31°27' W 062°50'0 0.9 27.1
2014-Jul-19 15:24N 31°27' W 062°50'0 2.7 27.1
2014-Jul-19 15:17N 31°27' W 062°50'0 0.0 27.1
2014-Jul-19 14:33N 31°27' W 062°50'1 0.8 26.9
2014-Jul-19 13:47N 31°26' W 062°50'1 3.0 26.9
2014-Jul-19 13:35N 31°26' W 062°50'0 0.0 26.9
2014-Jul-19 12:47N 31°26' W 062°50'114.0 26.8
2014-Jul-19 12:43N 31°25' W 062°51'0 0.0
2014-Jul-19 11:52N 31°25' W 062°51'0 0.0 26.7
2014-Jul-19 11:46N 31°25' W 062°51'1 0.6 26.7
2014-Jul-19 10:22N 31°24' W 062°50'1 4.4 26.7
2014-Jul-19 10:14N 31°24' W 062°49'0 0.0 26.7
2014-Jul-19 10:11N 31°24' W 062°49'0 1.4 26.7
2014-Jul-19 10:04N 31°24' W 062°50'1 0.8 26.7
2014-Jul-19 08:42N 31°23' W 062°49'0 0.8 26.7
2014-Jul-19 08:38N 31°23' W 062°49'0 2.0 26.7
2014-Jul-19 08:33N 31°23' W 062°49'0 0.0 26.7
2014-Jul-19 08:26N 31°23' W 062°49'1 1.2 26.7
2014-Jul-19 07:49N 31°23' W 062°48'0 3.8 26.7
2014-Jul-19 07:45N 31°23' W 062°48'111.3 26.7
2014-Jul-19 07:42N 31°23' W 062°47'0 0.1 26.7
2014-Jul-19 06:58N 31°23' W 062°47'0 0.4 26.7
2014-Jul-19 06:09N 31°22' W 062°47'0 4.6 26.8
2014-Jul-19 06:05N 31°22' W 062°46'3 1.5 26.8
2014-Jul-19 04:25N 31°22' W 062°43'0 0.0 26.8
2014-Jul-19 02:59N 31°22' W 062°43'0 0.0 26.8
2014-Jul-19 02:11N 31°22' W 062°43'0 1.0 26.9
2014-Jul-19 02:04N 31°22' W 062°44'0 0.4 26.9
2014-Jul-19 01:24N 31°22' W 062°44'0 0.0 26.9
2014-Jul-19 01:23N 31°22' W 062°44'1 1.5 26.9
2014-Jul-19 00:39N 31°23' W 062°43'120.1 26.9
2014-Jul-19 00:37N 31°23' W 062°42'1 3.8 26.9
2014-Jul-19 00:27N 31°23' W 062°43'0 0.0 26.9
2014-Jul-19 00:26N 31°23' W 062°43'1 0.8 26.9
2014-Jul-18 23:41N 31°23' W 062°42'0 0.0 26.9
2014-Jul-18 23:05N 31°23' W 062°42'0 0.3 26.9
2014-Jul-18 21:53N 31°23' W 062°42'0 0.0 26.9
2014-Jul-18 21:52N 31°23' W 062°42'1 0.3 26.9
2014-Jul-18 20:12N 31°24' W 062°42'024.6 26.9
2014-Jul-18 20:11N 31°24' W 062°43'0 2.1 26.9
2014-Jul-18 20:05N 31°24' W 062°43'0 0.0 26.9
2014-Jul-18 19:24N 31°24' W 062°43'0 4.1 26.9
2014-Jul-18 19:21N 31°24' W 062°43'0 0.1 26.9
2014-Jul-18 18:35N 31°24' W 062°43'1 0.7 26.9
2014-Jul-18 17:45N 31°24' W 062°44'0 0.2 26.9
2014-Jul-18 16:03N 31°23' W 062°43'0 1.5 26.7
2014-Jul-18 15:45N 31°23' W 062°43'0 0.8 26.7
2014-Jul-18 15:39N 31°23' W 062°43'0 0.6 26.7
2014-Jul-18 14:54N 31°23' W 062°44'0 0.6 26.6
2014-Jul-18 14:07N 31°22' W 062°44'212.4 26.6
2014-Jul-18 13:57N 31°20' W 062°43'0 0.1 26.6
2014-Jul-18 10:36N 31°20' W 062°43'0 0.0 26.5
2014-Jul-18 10:33N 31°20' W 062°43'0 3.2 26.5
2014-Jul-18 10:27N 31°20' W 062°43'172.7 26.5
2014-Jul-18 10:26N 31°19' W 062°43'0 0.0 26.5
2014-Jul-18 09:09N 31°19' W 062°43'1 3.2 26.5
2014-Jul-18 08:55N 31°19' W 062°42'1 8.2 26.5
2014-Jul-18 08:51N 31°19' W 062°42'0 0.0 26.5
2014-Jul-18 08:45N 31°19' W 062°42'0 0.0 26.5
2014-Jul-18 08:42N 31°19' W 062°42'0 0.0 26.5
2014-Jul-18 08:01N 31°19' W 062°42'0 3.9 26.5
2014-Jul-18 07:57N 31°19' W 062°42'1 8.3 26.5
2014-Jul-18 07:53N 31°18' W 062°41'0 0.0 26.5
2014-Jul-18 07:07N 31°18' W 062°41'013.3 26.5
2014-Jul-18 07:05N 31°18' W 062°41'0 0.0 26.5
2014-Jul-18 06:24N 31°18' W 062°41'0 0.0 26.6
2014-Jul-18 06:21N 31°18' W 062°41'1 9.6 26.6
2014-Jul-18 06:12N 31°18' W 062°39'0 0.0 26.6
2014-Jul-18 04:37N 31°18' W 062°39'1 0.7 26.6
2014-Jul-18 02:27N 31°18' W 062°38'   26.6
Track history (hours):
 
Tides and Currents Weather Stations Pressure Air Temp Water Temp Dewpoint Dewpoint Depression Visibility Wind Speed Wind Dir Waves Ship Positions

Drifting buoy 41503

Last reported at 2014-Jul-28 02:25 UTC. Time now 2014-Jul-28 04:12 UTC.
Position N 31°28' W 062°47'.

Water temperature 27.2 ° C

Date/timePositionNaut miles runAvg speedWind from/ knotsBaromVisibWave heightAir tempDewpointWater temp
2014-Jul-28 02:25N 31°28' W 062°47'0 2.2 27.2
2014-Jul-28 02:15N 31°28' W 062°47'029.7 27.2
2014-Jul-28 02:14N 31°29' W 062°47'0 0.1 27.2
2014-Jul-28 01:37N 31°29' W 062°47'1 0.6 27.2
2014-Jul-28 00:44N 31°29' W 062°48'1 0.9 27.3
2014-Jul-27 23:52N 31°29' W 062°48'0 0.0 27.3
2014-Jul-27 23:22N 31°29' W 062°48'1 4.2 27.3
2014-Jul-27 23:05N 31°30' W 062°49'0 0.0 27.3
2014-Jul-27 21:54N 31°30' W 062°49'0 0.0 27.4
2014-Jul-27 21:51N 31°30' W 062°49'0 0.9 27.4
2014-Jul-27 21:41N 31°30' W 062°50'1 0.5 27.4
2014-Jul-27 20:15N 31°30' W 062°50'1 1.9 27.4
2014-Jul-27 19:50N 31°31' W 062°51'0 4.2 27.4
2014-Jul-27 19:44N 31°30' W 062°51'0 0.0 27.3
2014-Jul-27 19:25N 31°30' W 062°51'0 0.0 27.3
2014-Jul-27 19:23N 31°30' W 062°51'3 3.4 27.3
2014-Jul-27 18:29N 31°30' W 062°55'0 0.0 27.3
2014-Jul-27 17:46N 31°30' W 062°55'1 0.8 27.3
2014-Jul-27 16:04N 31°30' W 062°53'1 5.3 27.3
2014-Jul-27 15:56N 31°30' W 062°54'0 0.1 27.3
2014-Jul-27 15:06N 31°30' W 062°54'0 0.4 27.2
2014-Jul-27 14:21N 31°29' W 062°54'1 4.3 27.2
2014-Jul-27 14:11N 31°29' W 062°55'0 0.1 27.2
2014-Jul-27 12:36N 31°29' W 062°55'0 3.6 27.1
2014-Jul-27 12:29N 31°29' W 062°55'0 0.0 27.1
2014-Jul-27 11:04N 31°29' W 062°55'0 0.3 27.1
2014-Jul-27 10:27N 31°29' W 062°55'0 7.9 27.1
2014-Jul-27 10:24N 31°29' W 062°55'0 0.0 27.1
2014-Jul-27 10:14N 31°29' W 062°55'0 2.4 27.1
2014-Jul-27 10:07N 31°29' W 062°55'0 0.6 27.1
2014-Jul-27 09:26N 31°29' W 062°55'0 0.9 27.1
2014-Jul-27 08:54N 31°29' W 062°56'0 0.0 27.1
2014-Jul-27 08:51N 31°29' W 062°56'0 0.0 27.1
2014-Jul-27 08:46N 31°29' W 062°56'0 8.2 27.1
2014-Jul-27 08:44N 31°29' W 062°56'0 0.0 27.1
2014-Jul-27 08:29N 31°29' W 062°56'0 0.7 27.1
2014-Jul-27 08:03N 31°29' W 062°56'0 3.7 27.1
2014-Jul-27 07:58N 31°29' W 062°56'0 0.5 27.1
2014-Jul-27 07:09N 31°29' W 062°56'0 0.3 27.2
2014-Jul-27 06:22N 31°28' W 062°56'0 2.1 27.2
2014-Jul-27 06:13N 31°28' W 062°56'0 0.3 27.2
2014-Jul-27 04:39N 31°29' W 062°57'0 0.1 27.2
2014-Jul-27 02:37N 31°28' W 062°57'0 0.0 27.2
2014-Jul-27 01:57N 31°28' W 062°57'0 0.2 27.2
2014-Jul-27 01:06N 31°28' W 062°57'0 0.0 27.2
2014-Jul-27 01:02N 31°28' W 062°57'0 5.7 27.2
2014-Jul-27 00:58N 31°29' W 062°57'0 0.0 27.2
2014-Jul-27 00:14N 31°29' W 062°57'0 3.3 27.3
2014-Jul-27 00:11N 31°29' W 062°57'0 0.2 27.3
2014-Jul-26 23:52N 31°29' W 062°57'0 0.4 27.3
2014-Jul-26 23:23N 31°29' W 062°57'1 0.6 27.3
2014-Jul-26 22:13N 31°29' W 062°58'0 0.0 27.3
2014-Jul-26 22:05N 31°29' W 062°58'0 1.1 27.3
2014-Jul-26 21:48N 31°29' W 062°57'0 0.3 27.3
2014-Jul-26 20:27N 31°29' W 062°58'0 0.7 27.3
2014-Jul-26 20:14N 31°29' W 062°58'019.8 27.3
2014-Jul-26 20:13N 31°29' W 062°58'0 0.3 27.3
2014-Jul-26 19:36N 31°29' W 062°58'1 0.6 27.3
2014-Jul-26 18:45N 31°29' W 062°59'0 5.4 27.3
2014-Jul-26 18:41N 31°29' W 062°59'0 0.4 27.3
2014-Jul-26 17:57N 31°29' W 062°59'1 0.5 27.3
2014-Jul-26 16:13N 31°29' W 062°60'0 7.8 27.2
2014-Jul-26 16:10N 31°29' W 062°60'0 0.1 27.2
2014-Jul-26 15:27N 31°29' W 062°60'1 1.0 27.1
2014-Jul-26 14:40N 31°29' W 063°00'1 0.6 27.1
2014-Jul-26 13:47N 31°29' W 063°01'0 0.0 27.0
2014-Jul-26 12:59N 31°29' W 063°01'0 2.1 27.0
2014-Jul-26 12:53N 31°29' W 063°01'1 1.1 27.0
2014-Jul-26 12:02N 31°28' W 063°02'0 0.0 27.0
2014-Jul-26 11:36N 31°28' W 063°02'0 0.1 27.0
2014-Jul-26 10:40N 31°28' W 063°02'110.2 26.9
2014-Jul-26 10:37N 31°28' W 063°01'0 2.7 26.9
2014-Jul-26 10:29N 31°28' W 063°02'0 0.0 26.9
2014-Jul-26 09:58N 31°28' W 063°02'0 0.0 26.9
2014-Jul-26 09:55N 31°28' W 063°02'0 0.4 26.9
2014-Jul-26 08:58N 31°28' W 063°02'0 0.0 27.0
2014-Jul-26 08:55N 31°28' W 063°02'0 7.7 26.9
2014-Jul-26 08:53N 31°28' W 063°02'0 0.0 26.9
2014-Jul-26 08:14N 31°28' W 063°02'019.0 27.0
2014-Jul-26 08:13N 31°27' W 063°02'0 3.9 27.0
2014-Jul-26 08:10N 31°28' W 063°02'0 3.6 27.0
2014-Jul-26 08:06N 31°27' W 063°02'0 0.2 27.0
2014-Jul-26 06:37N 31°27' W 063°02'0 0.0 27.0
2014-Jul-26 06:28N 31°27' W 063°02'0 0.0 27.0
2014-Jul-26 06:25N 31°27' W 063°02'0 0.0 27.0
2014-Jul-26 06:21N 31°27' W 063°02'0 0.0
2014-Jul-26 04:49N 31°27' W 063°02'0 0.1 27.0
2014-Jul-26 03:04N 31°27' W 063°02'0 7.4 27.1
2014-Jul-26 03:00N 31°27' W 063°02'0 0.0 27.1
2014-Jul-26 02:10N 31°27' W 063°02'0 0.0 27.1
2014-Jul-26 02:07N 31°27' W 063°02'0 0.2 27.1
2014-Jul-26 01:26N 31°27' W 063°02'0 0.0 27.1
2014-Jul-26 00:38N 31°27' W 063°02'0 3.6 27.1
2014-Jul-26 00:37N 31°27' W 063°02'0 1.8 27.1
2014-Jul-26 00:21N 31°27' W 063°02'0 0.1 27.2
2014-Jul-25 22:46N 31°27' W 063°02'0 0.0 27.2
2014-Jul-25 21:04N 31°27' W 063°02'0 0.8 27.2
2014-Jul-25 20:40N 31°27' W 063°02'012.8 27.2
2014-Jul-25 20:39N 31°27' W 063°02'1 0.8 27.2
2014-Jul-25 19:45N 31°27' W 063°03'0 0.0 27.2
2014-Jul-25 18:57N 31°27' W 063°03'0 4.9 27.2
2014-Jul-25 18:54N 31°27' W 063°03'0 0.2 27.2
2014-Jul-25 18:09N 31°27' W 063°03'0 0.2 27.2
2014-Jul-25 16:27N 31°28' W 063°03'0 0.2 27.2
2014-Jul-25 15:47N 31°28' W 063°03'1 1.2 27.1
2014-Jul-25 15:00N 31°27' W 063°04'1 0.7 27.1
2014-Jul-25 14:09N 31°27' W 063°04'0 0.0 27.1
2014-Jul-25 13:21N 31°27' W 063°04'0 0.5 27.0
2014-Jul-25 13:15N 31°27' W 063°04'0 0.2 27.0
2014-Jul-25 12:24N 31°27' W 063°04'1 0.7 27.0
2014-Jul-25 11:03N 31°26' W 063°05'0 1.8 27.0
2014-Jul-25 10:52N 31°27' W 063°05'0 7.1 27.0
2014-Jul-25 10:48N 31°26' W 063°05'0 0.0 27.0
2014-Jul-25 10:27N 31°26' W 063°05'1 0.5 27.0
2014-Jul-25 09:21N 31°26' W 063°05'0 1.4 27.0
2014-Jul-25 09:14N 31°26' W 063°05'0 1.5 27.0
2014-Jul-25 09:12N 31°26' W 063°05'0 2.3 27.0
2014-Jul-25 09:04N 31°26' W 063°04'0 1.8 27.0
2014-Jul-25 08:49N 31°26' W 063°05'0 1.0 27.0
2014-Jul-25 08:22N 31°26' W 063°04'1 6.7 27.0
2014-Jul-25 08:15N 31°25' W 063°04'0 0.0 27.0
2014-Jul-25 07:28N 31°25' W 063°04'0 0.1 27.1
2014-Jul-25 06:44N 31°25' W 063°05'1 5.3 27.2
2014-Jul-25 06:34N 31°26' W 063°05'0 0.0 27.2
2014-Jul-25 05:01N 31°26' W 063°05'1 0.6 27.3
2014-Jul-25 03:23N 31°25' W 063°05'0 0.0 27.4
2014-Jul-25 02:38N 31°25' W 063°05'0 0.1 27.4
2014-Jul-25 01:47N 31°25' W 063°05'0 0.5 27.4
2014-Jul-25 01:40N 31°25' W 063°05'0 0.2 27.4
2014-Jul-25 00:58N 31°24' W 063°06'0 0.0 27.5
2014-Jul-25 00:06N 31°24' W 063°06'0 0.0 27.5
2014-Jul-25 00:02N 31°24' W 063°06'0 0.3 27.5
2014-Jul-24 23:15N 31°24' W 063°05'0 0.5 27.6
2014-Jul-24 22:40N 31°24' W 063°05'0 0.0 27.6
2014-Jul-24 21:36N 31°24' W 063°05'0 0.9 27.7
2014-Jul-24 21:05N 31°24' W 063°05'0 0.0 27.8
2014-Jul-24 20:59N 31°24' W 063°05'0 1.2 27.8
2014-Jul-24 20:49N 31°24' W 063°05'0 1.6 27.8
2014-Jul-24 20:43N 31°24' W 063°05'0 0.1 27.8
2014-Jul-24 19:14N 31°25' W 063°05'0 0.5 27.7
2014-Jul-24 19:07N 31°25' W 063°05'0 0.1 27.7
2014-Jul-24 18:15N 31°25' W 063°05'0 0.3 27.8
2014-Jul-24 16:37N 31°25' W 063°06'0 0.0 27.7
2014-Jul-24 16:06N 31°25' W 063°06'0 0.0 27.7
2014-Jul-24 15:22N 31°25' W 063°06'0 0.2 27.7
2014-Jul-24 14:28N 31°25' W 063°06'0 0.6 27.6
2014-Jul-24 13:43N 31°25' W 063°06'0 1.6 27.6
2014-Jul-24 13:33N 31°25' W 063°06'0 0.0 27.6
2014-Jul-24 12:43N 31°25' W 063°06'113.4 27.6
2014-Jul-24 12:40N 31°25' W 063°07'0 0.0 27.6
2014-Jul-24 11:25N 31°25' W 063°07'0 1.1 27.6
2014-Jul-24 11:03N 31°25' W 063°08'0 0.0 27.5
2014-Jul-24 11:00N 31°25' W 063°08'0 0.2 27.5
2014-Jul-24 09:47N 31°25' W 063°08'0 1.1 27.5
2014-Jul-24 09:40N 31°25' W 063°08'0 0.0 27.5
2014-Jul-24 09:26N 31°25' W 063°08'0 1.5 27.6
2014-Jul-24 09:22N 31°25' W 063°07'0 0.7 27.6
2014-Jul-24 09:15N 31°24' W 063°07'1 0.8 27.6
2014-Jul-24 08:34N 31°24' W 063°08'0 0.3 27.6
2014-Jul-24 07:43N 31°24' W 063°08'0 1.0 27.6
2014-Jul-24 07:40N 31°24' W 063°08'0 0.5 27.6
2014-Jul-24 06:56N 31°24' W 063°08'0 3.2 27.6
2014-Jul-24 06:48N 31°23' W 063°08'0 0.0 27.6
2014-Jul-24 05:13N 31°23' W 063°08'1 0.6 27.6
2014-Jul-24 02:58N 31°22' W 063°07'0 0.0 27.7
2014-Jul-24 02:07N 31°22' W 063°07'1 4.3 27.8
2014-Jul-24 01:58N 31°22' W 063°06'0 0.0
2014-Jul-24 01:19N 31°22' W 063°06'0 0.0 27.8
2014-Jul-24 01:15N 31°22' W 063°06'0 0.1 27.8
2014-Jul-24 00:28N 31°22' W 063°06'1 0.7 27.9
2014-Jul-23 23:44N 31°22' W 063°06'1 0.5 27.9
2014-Jul-23 22:08N 31°23' W 063°05'1 1.3 27.8
2014-Jul-23 21:28N 31°23' W 063°04'0 0.1 27.8
2014-Jul-23 20:58N 31°23' W 063°04'0 2.4 27.9
2014-Jul-23 20:55N 31°23' W 063°04'1 5.7 27.9
2014-Jul-23 20:48N 31°24' W 063°04'0 0.4 27.9
2014-Jul-23 19:47N 31°24' W 063°04'0 0.0 27.9
2014-Jul-23 19:20N 31°24' W 063°04'0 0.0
2014-Jul-23 19:19N 31°24' W 063°04'021.8 28.0
2014-Jul-23 19:18N 31°25' W 063°04'0 0.0 28.0
2014-Jul-23 18:28N 31°25' W 063°04'1 0.5 28.0
2014-Jul-23 16:49N 31°26' W 063°04'1 0.7 27.9
2014-Jul-23 15:41N 31°26' W 063°05'0 0.0 27.7
2014-Jul-23 14:51N 31°26' W 063°05'2 2.3 27.6
2014-Jul-23 14:04N 31°26' W 063°07'0 0.0 27.6
2014-Jul-23 14:02N 31°26' W 063°07'0 1.1 27.6
2014-Jul-23 13:52N 31°26' W 063°07'0 0.2 27.6
2014-Jul-23 12:58N 31°26' W 063°07'0 0.1
2014-Jul-23 10:12N 31°26' W 063°07'0 2.9 27.2
2014-Jul-23 10:05N 31°26' W 063°07'0 0.9 27.2
2014-Jul-23 09:52N 31°26' W 063°07'0 0.8 27.2
2014-Jul-23 09:37N 31°26' W 063°07'0 3.1 27.2
2014-Jul-23 09:34N 31°26' W 063°07'1 6.3 27.2
2014-Jul-23 09:28N 31°25' W 063°08'0 0.0 27.2
2014-Jul-23 08:43N 31°25' W 063°08'0 0.8 27.2
2014-Jul-23 08:26N 31°25' W 063°08'0 1.0 27.2
2014-Jul-23 08:09N 31°25' W 063°07'0 1.0 27.2
2014-Jul-23 07:52N 31°25' W 063°08'0 6.6 27.2
2014-Jul-23 07:48N 31°25' W 063°07'0 0.0 27.2
2014-Jul-23 07:08N 31°25' W 063°07'0 0.0 27.2
2014-Jul-23 07:05N 31°25' W 063°07'1 4.0 27.2
2014-Jul-23 06:56N 31°24' W 063°07'0 0.0 27.2
2014-Jul-23 05:23N 31°24' W 063°07'1 7.2 27.3
2014-Jul-23 05:14N 31°24' W 063°06'0 0.0 27.3
2014-Jul-23 03:14N 31°24' W 063°06'0 0.0 27.3
2014-Jul-23 02:27N 31°24' W 063°06'0 0.6 27.4
2014-Jul-23 02:22N 31°24' W 063°06'1 0.9 27.4
2014-Jul-23 01:41N 31°24' W 063°05'0 0.1 27.4
2014-Jul-23 00:14N 31°24' W 063°05'0 1.8 27.5
2014-Jul-23 00:10N 31°24' W 063°04'0 0.3 27.5
2014-Jul-22 23:59N 31°24' W 063°04'110.0 27.5
2014-Jul-22 23:54N 31°25' W 063°04'0 0.2 27.5
2014-Jul-22 21:51N 31°25' W 063°03'1 0.8 27.9
2014-Jul-22 21:11N 31°25' W 063°03'0 1.8 27.9
2014-Jul-22 21:07N 31°25' W 063°03'1 1.1 27.9
2014-Jul-22 20:13N 31°26' W 063°03'0 4.7 27.9
2014-Jul-22 20:12N 31°26' W 063°03'0 0.2 27.9
2014-Jul-22 19:28N 31°26' W 063°03'0 0.5 27.9
2014-Jul-22 18:40N 31°27' W 063°04'0 2.0 28.0
2014-Jul-22 18:34N 31°27' W 063°03'110.6 28.0
2014-Jul-22 18:28N 31°28' W 063°04'0 0.0 28.0
2014-Jul-22 16:58N 31°28' W 063°04'1 0.3 28.0
2014-Jul-22 15:10N 31°28' W 063°05'0 0.2 27.8
2014-Jul-22 14:25N 31°28' W 063°05'1 4.8 27.7
2014-Jul-22 14:12N 31°28' W 063°06'0 0.1 27.7
2014-Jul-22 12:40N 31°28' W 063°06'1 0.3 27.4
2014-Jul-22 10:37N 31°28' W 063°07'0 1.2 27.3
2014-Jul-22 10:22N 31°27' W 063°07'0 0.2 27.4
2014-Jul-22 09:48N 31°27' W 063°07'1 4.2 27.4
2014-Jul-22 09:39N 31°27' W 063°06'0 0.2 27.4
2014-Jul-22 08:59N 31°27' W 063°06'0 0.3 27.4
2014-Jul-22 08:04N 31°26' W 063°06'0 3.9 27.5
2014-Jul-22 07:58N 31°26' W 063°06'0 0.0 27.5
2014-Jul-22 07:14N 31°26' W 063°06'1 9.1 27.6
2014-Jul-22 07:08N 31°26' W 063°05'0 0.2 27.6
2014-Jul-22 05:32N 31°26' W 063°05'2 0.8 27.9
2014-Jul-22 02:42N 31°25' W 063°03'0 0.4 28.2
2014-Jul-22 01:58N 31°25' W 063°03'0 0.2 28.2
2014-Jul-22 01:10N 31°25' W 063°02'0 0.0 28.4
2014-Jul-22 01:06N 31°25' W 063°02'0 4.9 28.4
2014-Jul-22 01:01N 31°25' W 063°02'0 0.0 28.4
2014-Jul-22 00:20N 31°25' W 063°02'133.8 28.3
2014-Jul-22 00:19N 31°25' W 063°01'0 0.0 28.2
2014-Jul-21 23:26N 31°25' W 063°01'0 1.5 28.9
2014-Jul-21 23:11N 31°26' W 063°01'1 0.6 29.0
2014-Jul-21 22:13N 31°26' W 063°01'0 0.5 29.9
2014-Jul-21 21:27N 31°27' W 063°01'0 3.9 30.3
2014-Jul-21 21:23N 31°26' W 063°01'0 0.0 30.3
2014-Jul-21 21:19N 31°26' W 063°01'1 1.0 30.3
2014-Jul-21 20:38N 31°27' W 063°00'012.6 30.6
2014-Jul-21 20:36N 31°27' W 063°00'0 0.0 30.6
2014-Jul-21 19:43N 31°27' W 063°00'0 0.3 30.6
2014-Jul-21 18:52N 31°28' W 063°01'0 1.9 30.8
2014-Jul-21 18:43N 31°28' W 063°00'121.6 30.8
2014-Jul-21 18:40N 31°29' W 063°01'0 0.0 30.6
2014-Jul-21 17:58N 31°29' W 063°01'0 0.1 30.5
2014-Jul-21 17:11N 31°29' W 063°01'0 0.2 30.0
2014-Jul-21 15:30N 31°29' W 063°01'0 4.7 29.4
2014-Jul-21 15:26N 31°29' W 063°01'0 0.0
2014-Jul-21 14:44N 31°29' W 063°01'0 1.9 28.4
2014-Jul-21 14:35N 31°29' W 063°02'0 0.0 28.4
2014-Jul-21 13:51N 31°29' W 063°02'0 0.3 28.1
2014-Jul-21 13:03N 31°28' W 063°02'0 1.2 27.7
2014-Jul-21 12:57N 31°28' W 063°02'0 0.2 27.6
2014-Jul-21 12:06N 31°28' W 063°02'1 0.7 27.3
2014-Jul-21 10:58N 31°28' W 063°03'0 0.0 27.1
2014-Jul-21 10:54N 31°28' W 063°03'1 4.1 27.1
2014-Jul-21 10:43N 31°27' W 063°02'0 0.0 27.1
2014-Jul-21 09:57N 31°27' W 063°02'0 0.0
2014-Jul-21 09:56N 31°27' W 063°02'110.4 27.1
2014-Jul-21 09:53N 31°27' W 063°03'0 0.0 27.1
2014-Jul-21 09:13N 31°27' W 063°03'150.1 27.1
2014-Jul-21 09:12N 31°26' W 063°02'0 0.0 27.2
2014-Jul-21 08:20N 31°26' W 063°02'0 0.4 27.2
2014-Jul-21 08:13N 31°26' W 063°02'014.8 27.2
2014-Jul-21 08:11N 31°26' W 063°02'0 0.0 27.2
2014-Jul-21 07:36N 31°26' W 063°02'0 0.5 27.2
2014-Jul-21 07:27N 31°26' W 063°02'110.1 27.3
2014-Jul-21 07:19N 31°26' W 063°00'0 0.0 27.3
2014-Jul-21 05:42N 31°26' W 063°00'260.0 27.4
2014-Jul-21 05:40N 31°25' W 062°58'0 0.0 27.4
2014-Jul-21 03:08N 31°25' W 062°58'0 5.3 27.6
2014-Jul-21 03:04N 31°25' W 062°58'0 0.5 27.6
2014-Jul-21 02:21N 31°26' W 062°57'1 5.9 27.6
2014-Jul-21 02:11N 31°26' W 062°56'0 0.1 27.6
2014-Jul-21 01:27N 31°26' W 062°56'0 1.4 27.7
2014-Jul-21 01:22N 31°26' W 062°56'0 0.0 27.7
2014-Jul-21 00:42N 31°26' W 062°56'138.4 27.7
2014-Jul-21 00:41N 31°26' W 062°55'0 0.0 27.7
2014-Jul-20 23:48N 31°26' W 062°55'0 1.8 27.9
2014-Jul-20 23:41N 31°26' W 062°55'1 1.0 27.9
2014-Jul-20 22:34N 31°27' W 062°55'0 0.3 28.1
2014-Jul-20 21:58N 31°27' W 062°55'0 0.3 28.3
2014-Jul-20 21:28N 31°27' W 062°55'1 9.2 28.4
2014-Jul-20 21:24N 31°27' W 062°56'0 0.0 28.4
2014-Jul-20 20:58N 31°27' W 062°56'1 0.7 28.4
2014-Jul-20 19:54N 31°28' W 062°55'0 0.5 28.2
2014-Jul-20 19:19N 31°28' W 062°56'0 0.3 28.1
2014-Jul-20 18:56N 31°28' W 062°55'1 8.1 27.9
2014-Jul-20 18:52N 31°29' W 062°55'0 0.0 27.9
2014-Jul-20 18:11N 31°29' W 062°55'0 0.3 27.9
2014-Jul-20 17:23N 31°29' W 062°56'0 2.0 27.6
2014-Jul-20 17:13N 31°29' W 062°56'0 0.2
2014-Jul-20 15:49N 31°29' W 062°56'0 0.4 27.4
2014-Jul-20 15:39N 31°29' W 062°56'0 0.8 27.4
2014-Jul-20 15:05N 31°29' W 062°56'1 4.1 27.3
2014-Jul-20 14:54N 31°28' W 062°56'0 0.0 27.3
2014-Jul-20 14:13N 31°28' W 062°56'1 0.7 27.2
2014-Jul-20 13:21N 31°28' W 062°56'1 4.2 27.1
2014-Jul-20 13:13N 31°27' W 062°56'0 0.2
2014-Jul-20 12:27N 31°27' W 062°56'0 0.3 27.0
2014-Jul-20 11:24N 31°27' W 062°57'1 4.2 26.9
2014-Jul-20 11:16N 31°27' W 062°56'0 0.0 24.2
2014-Jul-20 10:11N 31°27' W 062°57'0 3.8 26.9
2014-Jul-20 10:05N 31°27' W 062°56'0 9.3 26.9
2014-Jul-20 10:02N 31°26' W 062°57'0 0.0 26.9
2014-Jul-20 09:45N 31°26' W 062°57'0 0.8 26.9
2014-Jul-20 09:39N 31°26' W 062°57'114.1 26.9
2014-Jul-20 09:35N 31°26' W 062°56'0 0.0 26.9
2014-Jul-20 08:27N 31°26' W 062°56'0 1.3 27.0
2014-Jul-20 08:05N 31°26' W 062°55'0 6.0 27.0
2014-Jul-20 08:02N 31°26' W 062°55'0 0.3 27.0
2014-Jul-20 07:39N 31°26' W 062°55'1 8.2 27.0
2014-Jul-20 07:33N 31°25' W 062°54'0 9.5 27.0
2014-Jul-20 07:31N 31°25' W 062°54'0 0.0 27.0
2014-Jul-20 06:47N 31°25' W 062°54'0 0.1 27.0
2014-Jul-20 05:54N 31°25' W 062°54'342.6 27.1
2014-Jul-20 05:50N 31°24' W 062°51'1 0.2 27.1
2014-Jul-20 01:42N 31°25' W 062°50'0 0.0 27.3
2014-Jul-20 01:04N 31°25' W 062°50'0 2.4 27.4
2014-Jul-20 01:02N 31°25' W 062°50'1 6.9 27.4
2014-Jul-20 00:55N 31°25' W 062°49'0 0.0 27.4
2014-Jul-20 00:11N 31°25' W 062°49'0 0.0 27.3
2014-Jul-20 00:10N 31°25' W 062°49'1 9.0 27.3
2014-Jul-20 00:06N 31°26' W 062°49'0 0.1 27.3
2014-Jul-19 22:28N 31°26' W 062°49'1 1.0 27.4
2014-Jul-19 21:43N 31°26' W 062°48'0 0.7 27.4
2014-Jul-19 21:27N 31°26' W 062°48'1 0.5 27.5
2014-Jul-19 19:58N 31°27' W 062°49'1 3.2 27.5
2014-Jul-19 19:46N 31°27' W 062°49'0 0.0 27.5
2014-Jul-19 19:12N 31°27' W 062°49'0 1.5
2014-Jul-19 19:10N 31°27' W 062°49'0 0.3 27.4
2014-Jul-19 18:23N 31°27' W 062°49'0 0.2 27.4
2014-Jul-19 17:33N 31°27' W 062°49'0 0.6 27.3
2014-Jul-19 17:28N 31°27' W 062°49'0 0.3 27.3
2014-Jul-19 16:08N 31°27' W 062°50'0 0.0 27.2
2014-Jul-19 15:51N 31°27' W 062°50'0 0.9 27.1
2014-Jul-19 15:24N 31°27' W 062°50'0 2.7 27.1
2014-Jul-19 15:17N 31°27' W 062°50'0 0.0 27.1
2014-Jul-19 14:33N 31°27' W 062°50'1 0.8 26.9
2014-Jul-19 13:47N 31°26' W 062°50'1 3.0 26.9
2014-Jul-19 13:35N 31°26' W 062°50'0 0.0 26.9
2014-Jul-19 12:47N 31°26' W 062°50'114.0 26.8
2014-Jul-19 12:43N 31°25' W 062°51'0 0.0
2014-Jul-19 11:52N 31°25' W 062°51'0 0.0 26.7
2014-Jul-19 11:46N 31°25' W 062°51'1 0.6 26.7
2014-Jul-19 10:22N 31°24' W 062°50'1 4.4 26.7
2014-Jul-19 10:14N 31°24' W 062°49'0 0.0 26.7
2014-Jul-19 10:11N 31°24' W 062°49'0 1.4 26.7
2014-Jul-19 10:04N 31°24' W 062°50'1 0.8 26.7
2014-Jul-19 08:42N 31°23' W 062°49'0 0.8 26.7
2014-Jul-19 08:38N 31°23' W 062°49'0 2.0 26.7
2014-Jul-19 08:33N 31°23' W 062°49'0 0.0 26.7
2014-Jul-19 08:26N 31°23' W 062°49'1 1.2 26.7
2014-Jul-19 07:49N 31°23' W 062°48'0 3.8 26.7
2014-Jul-19 07:45N 31°23' W 062°48'111.3 26.7
2014-Jul-19 07:42N 31°23' W 062°47'0 0.1 26.7
2014-Jul-19 06:58N 31°23' W 062°47'0 0.4 26.7
2014-Jul-19 06:09N 31°22' W 062°47'0 4.6 26.8
2014-Jul-19 06:05N 31°22' W 062°46'3 1.5 26.8
2014-Jul-19 04:25N 31°22' W 062°43'0 0.0 26.8
2014-Jul-19 02:59N 31°22' W 062°43'0 0.0 26.8
2014-Jul-19 02:11N 31°22' W 062°43'0 1.0 26.9
2014-Jul-19 02:04N 31°22' W 062°44'0 0.4 26.9
2014-Jul-19 01:24N 31°22' W 062°44'0 0.0 26.9
2014-Jul-19 01:23N 31°22' W 062°44'1 1.5 26.9
2014-Jul-19 00:39N 31°23' W 062°43'120.1 26.9
2014-Jul-19 00:37N 31°23' W 062°42'1 3.8 26.9
2014-Jul-19 00:27N 31°23' W 062°43'0 0.0 26.9
2014-Jul-19 00:26N 31°23' W 062°43'1 0.8 26.9
2014-Jul-18 23:41N 31°23' W 062°42'0 0.0 26.9
2014-Jul-18 23:05N 31°23' W 062°42'0 0.3 26.9
2014-Jul-18 21:53N 31°23' W 062°42'0 0.0 26.9
2014-Jul-18 21:52N 31°23' W 062°42'1 0.3 26.9
2014-Jul-18 20:12N 31°24' W 062°42'024.6 26.9
2014-Jul-18 20:11N 31°24' W 062°43'0 2.1 26.9
2014-Jul-18 20:05N 31°24' W 062°43'0 0.0 26.9
2014-Jul-18 19:24N 31°24' W 062°43'0 4.1 26.9
2014-Jul-18 19:21N 31°24' W 062°43'0 0.1 26.9
2014-Jul-18 18:35N 31°24' W 062°43'1 0.7 26.9
2014-Jul-18 17:45N 31°24' W 062°44'0 0.2 26.9
2014-Jul-18 16:03N 31°23' W 062°43'0 1.5 26.7
2014-Jul-18 15:45N 31°23' W 062°43'0 0.8 26.7
2014-Jul-18 15:39N 31°23' W 062°43'0 0.6 26.7
2014-Jul-18 14:54N 31°23' W 062°44'0 0.6 26.6
2014-Jul-18 14:07N 31°22' W 062°44'212.4 26.6
2014-Jul-18 13:57N 31°20' W 062°43'0 0.1 26.6
2014-Jul-18 10:36N 31°20' W 062°43'0 0.0 26.5
2014-Jul-18 10:33N 31°20' W 062°43'0 3.2 26.5
2014-Jul-18 10:27N 31°20' W 062°43'172.7 26.5
2014-Jul-18 10:26N 31°19' W 062°43'0 0.0 26.5
2014-Jul-18 09:09N 31°19' W 062°43'1 3.2 26.5
2014-Jul-18 08:55N 31°19' W 062°42'1 8.2 26.5
2014-Jul-18 08:51N 31°19' W 062°42'0 0.0 26.5
2014-Jul-18 08:45N 31°19' W 062°42'0 0.0 26.5
2014-Jul-18 08:42N 31°19' W 062°42'0 0.0 26.5
2014-Jul-18 08:01N 31°19' W 062°42'0 3.9 26.5
2014-Jul-18 07:57N 31°19' W 062°42'1 8.3 26.5
2014-Jul-18 07:53N 31°18' W 062°41'0 0.0 26.5
2014-Jul-18 07:07N 31°18' W 062°41'013.3 26.5
2014-Jul-18 07:05N 31°18' W 062°41'0 0.0 26.5
2014-Jul-18 06:24N 31°18' W 062°41'0 0.0 26.6
2014-Jul-18 06:21N 31°18' W 062°41'1 9.6 26.6
2014-Jul-18 06:12N 31°18' W 062°39'0 0.0 26.6
2014-Jul-18 04:37N 31°18' W 062°39'1 0.7 26.6
2014-Jul-18 02:27N 31°18' W 062°38'   26.6

Dump ship's entire track history